Impacts TAF Board
For situational awareness. Not to be used for flight planning purposes.
IDs:

KCLT - Charlotte/Douglas In, NC, US

Issued at 1120 UTC 21 Oct 2018
Updated at 1247 UTC 21 Oct 2018
Potential Impact None Slight Moderate High
Time<<22/01Z 22/02Z 22/03Z 22/04Z 22/05Z 22/06Z 22/07Z 22/08Z 22/09Z 22/10Z 22/11Z 22/12Z 22/13Z>>
Type PRVL PRVL PRVL PRVL PRVL PRVL PRVL PRVL PRVL PRVL PRVL PRVL PRVL
VIS >6 >6 >6 >6 >6 >6 >6 >6 >6 >6 >6 >6 >6
CIG -- -- -- -- -- -- -- -- -- -- -- -- --
Cover SKC SKC SKC SKC SKC SKC SKC SKC SKC SKC SKC SKC SKC
FltCat VFR VFR VFR VFR VFR VFR VFR VFR VFR VFR VFR VFR VFR
WX -- -- -- -- -- -- -- -- -- -- -- -- --
WDir 350 350 350 350 350 350 350 350 350 350 VRB VRB VRB
WSpd 7 7 7 7 7 7 7 7 7 7 3 3 3
WGst -- -- -- -- -- -- -- -- -- -- -- -- --
Raw TAF
KCLT 211120Z 2112/2218 34010G15KT P6SM SKC
  FM211900 35007KT P6SM SKC
  FM221100 VRB03KT P6SM SKC


METAR Board
Radar Display
Forecast Discussion
For situational awareness. Not to be used for flight planning purposes.